sensor_id;sensor_type;location;lat;lon;timestamp;pressure;altitude;pressure_sealevel;temperature;humidity
21395;BME280;10858;42.714;23.180;2023-02-28T00:01:24;94844.09;;;7.07;85.26
21395;BME280;10858;42.714;23.180;2023-02-28T00:03:50;94841.22;;;6.98;84.74
21395;BME280;10858;42.714;23.180;2023-02-28T00:06:17;94848.44;;;6.81;84.24
21395;BME280;10858;42.714;23.180;2023-02-28T00:08:43;94846.09;;;6.64;85.83
21395;BME280;10858;42.714;23.180;2023-02-28T00:11:12;94855.38;;;6.70;85.15
21395;BME280;10858;42.714;23.180;2023-02-28T00:13:44;94853.59;;;6.70;85.23
21395;BME280;10858;42.714;23.180;2023-02-28T00:16:15;94856.91;;;6.86;85.25
21395;BME280;10858;42.714;23.180;2023-02-28T00:18:41;94855.03;;;6.88;84.14
21395;BME280;10858;42.714;23.180;2023-02-28T00:21:08;94865.59;;;6.62;84.78
21395;BME280;10858;42.714;23.180;2023-02-28T00:23:35;94859.97;;;6.54;86.05
21395;BME280;10858;42.714;23.180;2023-02-28T00:26:02;94878.31;;;6.82;85.51
21395;BME280;10858;42.714;23.180;2023-02-28T00:28:28;94871.78;;;7.27;84.47
21395;BME280;10858;42.714;23.180;2023-02-28T00:30:55;94876.44;;;7.48;83.18
21395;BME280;10858;42.714;23.180;2023-02-28T00:33:23;94875.00;;;7.18;83.71
21395;BME280;10858;42.714;23.180;2023-02-28T00:35:49;94878.19;;;6.71;87.18
21395;BME280;10858;42.714;23.180;2023-02-28T00:38:15;94872.09;;;7.35;85.82
21395;BME280;10858;42.714;23.180;2023-02-28T00:40:42;94877.56;;;7.32;85.30
21395;BME280;10858;42.714;23.180;2023-02-28T00:43:08;94876.81;;;7.30;87.27
21395;BME280;10858;42.714;23.180;2023-02-28T00:45:34;94864.41;;;7.69;86.25
21395;BME280;10858;42.714;23.180;2023-02-28T00:48:01;94871.06;;;7.75;85.87
21395;BME280;10858;42.714;23.180;2023-02-28T00:50:27;94871.78;;;7.77;85.95
21395;BME280;10858;42.714;23.180;2023-02-28T00:52:54;94864.06;;;7.99;85.27
21395;BME280;10858;42.714;23.180;2023-02-28T00:55:20;94863.50;;;8.07;84.76
21395;BME280;10858;42.714;23.180;2023-02-28T00:57:46;94857.97;;;8.22;84.39
21395;BME280;10858;42.714;23.180;2023-02-28T01:00:13;94872.78;;;8.37;83.67
21395;BME280;10858;42.714;23.180;2023-02-28T01:02:39;94862.97;;;8.27;83.22
21395;BME280;10858;42.714;23.180;2023-02-28T01:05:06;94864.63;;;8.28;83.25
21395;BME280;10858;42.714;23.180;2023-02-28T01:07:32;94856.75;;;8.15;83.04
21395;BME280;10858;42.714;23.180;2023-02-28T01:09:58;94861.38;;;8.12;83.69
21395;BME280;10858;42.714;23.180;2023-02-28T01:12:25;94857.00;;;7.87;83.64
21395;BME280;10858;42.714;23.180;2023-02-28T01:14:51;94858.91;;;7.72;84.34
21395;BME280;10858;42.714;23.180;2023-02-28T01:17:17;94856.69;;;7.79;84.16
21395;BME280;10858;42.714;23.180;2023-02-28T01:19:43;94857.00;;;7.87;83.57
21395;BME280;10858;42.714;23.180;2023-02-28T01:22:09;94865.44;;;7.92;83.42
21395;BME280;10858;42.714;23.180;2023-02-28T01:24:36;94859.31;;;7.79;82.88
21395;BME280;10858;42.714;23.180;2023-02-28T01:27:03;94854.34;;;7.74;83.34
21395;BME280;10858;42.714;23.180;2023-02-28T01:29:29;94855.59;;;7.82;83.56
21395;BME280;10858;42.714;23.180;2023-02-28T01:31:55;94860.16;;;7.80;83.16
21395;BME280;10858;42.714;23.180;2023-02-28T01:34:23;94856.03;;;7.88;83.21
21395;BME280;10858;42.714;23.180;2023-02-28T01:36:49;94856.44;;;7.95;82.79
21395;BME280;10858;42.714;23.180;2023-02-28T01:39:15;94850.84;;;7.99;82.81
21395;BME280;10858;42.714;23.180;2023-02-28T01:41:41;94853.56;;;8.10;82.19
21395;BME280;10858;42.714;23.180;2023-02-28T01:47:12;94858.03;;;7.97;82.67
21395;BME280;10858;42.714;23.180;2023-02-28T01:49:39;94862.88;;;8.03;82.75
21395;BME280;10858;42.714;23.180;2023-02-28T01:52:06;94855.84;;;7.79;83.34
21395;BME280;10858;42.714;23.180;2023-02-28T01:54:35;94854.00;;;7.92;83.54
21395;BME280;10858;42.714;23.180;2023-02-28T01:57:23;94852.75;;;7.97;83.02
21395;BME280;10858;42.714;23.180;2023-02-28T01:59:54;94855.41;;;7.97;83.26
21395;BME280;10858;42.714;23.180;2023-02-28T02:02:25;94857.19;;;7.84;82.83
21395;BME280;10858;42.714;23.180;2023-02-28T02:05:03;94854.88;;;7.80;83.57
21395;BME280;10858;42.714;23.180;2023-02-28T02:07:33;94862.25;;;8.00;83.95
21395;BME280;10858;42.714;23.180;2023-02-28T02:10:21;94868.38;;;8.25;82.31
21395;BME280;10858;42.714;23.180;2023-02-28T02:16:02;94856.94;;;8.00;82.67
21395;BME280;10858;42.714;23.180;2023-02-28T02:18:54;94862.16;;;8.01;82.85
21395;BME280;10858;42.714;23.180;2023-02-28T02:21:53;94868.47;;;8.11;82.66
21395;BME280;10858;42.714;23.180;2023-02-28T02:35:27;94854.59;;;7.71;84.47
21395;BME280;10858;42.714;23.180;2023-02-28T02:43:35;94863.63;;;7.93;85.36
21395;BME280;10858;42.714;23.180;2023-02-28T02:49:08;94867.69;;;8.22;83.17
21395;BME280;10858;42.714;23.180;2023-02-28T02:51:37;94876.59;;;8.33;83.01
21395;BME280;10858;42.714;23.180;2023-02-28T02:54:35;94870.03;;;8.14;83.30
21395;BME280;10858;42.714;23.180;2023-02-28T02:57:13;94866.50;;;7.77;84.69
21395;BME280;10858;42.714;23.180;2023-02-28T02:59:43;94861.41;;;7.99;85.24
21395;BME280;10858;42.714;23.180;2023-02-28T03:02:12;94876.00;;;7.92;83.87
21395;BME280;10858;42.714;23.180;2023-02-28T03:04:45;94871.13;;;7.86;84.40
21395;BME280;10858;42.714;23.180;2023-02-28T03:07:13;94878.00;;;7.76;84.53
21395;BME280;10858;42.714;23.180;2023-02-28T03:09:39;94871.69;;;7.66;85.49
21395;BME280;10858;42.714;23.180;2023-02-28T03:12:11;94888.34;;;7.54;86.27
21395;BME280;10858;42.714;23.180;2023-02-28T03:14:59;94884.66;;;7.44;86.73
21395;BME280;10858;42.714;23.180;2023-02-28T03:31:28;94894.38;;;7.94;84.21
21395;BME280;10858;42.714;23.180;2023-02-28T03:34:14;94902.09;;;8.09;84.08
21395;BME280;10858;42.714;23.180;2023-02-28T03:36:47;94906.09;;;8.15;83.67
21395;BME280;10858;42.714;23.180;2023-02-28T03:39:32;94909.16;;;8.21;82.93
21395;BME280;10858;42.714;23.180;2023-02-28T03:42:03;94910.00;;;8.09;83.20
21395;BME280;10858;42.714;23.180;2023-02-28T03:44:41;94906.41;;;8.10;82.98
21395;BME280;10858;42.714;23.180;2023-02-28T03:47:16;94916.78;;;8.13;82.58
21395;BME280;10858;42.714;23.180;2023-02-28T03:50:16;94920.16;;;8.15;82.46
21395;BME280;10858;42.714;23.180;2023-02-28T03:53:32;94919.22;;;7.91;83.32
21395;BME280;10858;42.714;23.180;2023-02-28T03:56:19;94916.84;;;8.12;82.65
21395;BME280;10858;42.714;23.180;2023-02-28T04:01:58;94921.44;;;7.97;83.49
21395;BME280;10858;42.714;23.180;2023-02-28T04:04:30;94930.06;;;8.12;82.87
21395;BME280;10858;42.714;23.180;2023-02-28T04:07:09;94926.25;;;8.16;82.33
21395;BME280;10858;42.714;23.180;2023-02-28T04:09:37;94921.53;;;8.08;82.01
21395;BME280;10858;42.714;23.180;2023-02-28T04:12:04;94924.81;;;7.74;83.48
21395;BME280;10858;42.714;23.180;2023-02-28T04:14:33;94927.56;;;7.85;83.91
21395;BME280;10858;42.714;23.180;2023-02-28T04:17:04;94919.31;;;7.90;83.25
21395;BME280;10858;42.714;23.180;2023-02-28T04:19:34;94921.63;;;7.94;82.96
21395;BME280;10858;42.714;23.180;2023-02-28T04:22:00;94911.72;;;7.85;83.42
21395;BME280;10858;42.714;23.180;2023-02-28T04:24:28;94915.19;;;7.98;83.15
21395;BME280;10858;42.714;23.180;2023-02-28T04:26:56;94924.28;;;7.94;83.69
21395;BME280;10858;42.714;23.180;2023-02-28T04:29:25;94925.88;;;7.97;83.07
21395;BME280;10858;42.714;23.180;2023-02-28T04:31:53;94919.00;;;7.94;83.23
21395;BME280;10858;42.714;23.180;2023-02-28T04:34:20;94934.31;;;7.77;84.02
21395;BME280;10858;42.714;23.180;2023-02-28T04:36:47;94923.84;;;7.88;83.60
21395;BME280;10858;42.714;23.180;2023-02-28T04:39:16;94923.53;;;7.92;83.80
21395;BME280;10858;42.714;23.180;2023-02-28T04:41:45;94927.03;;;7.93;83.57
21395;BME280;10858;42.714;23.180;2023-02-28T04:44:34;94939.06;;;7.84;83.96
21395;BME280;10858;42.714;23.180;2023-02-28T04:47:13;94941.91;;;7.94;83.84
21395;BME280;10858;42.714;23.180;2023-02-28T04:49:40;94947.19;;;7.94;83.60
21395;BME280;10858;42.714;23.180;2023-02-28T04:52:10;94946.25;;;7.95;83.54
21395;BME280;10858;42.714;23.180;2023-02-28T04:54:37;94945.19;;;7.85;83.80
21395;BME280;10858;42.714;23.180;2023-02-28T04:57:04;94944.16;;;7.87;84.30
21395;BME280;10858;42.714;23.180;2023-02-28T04:59:31;94943.94;;;7.90;83.94
21395;BME280;10858;42.714;23.180;2023-02-28T05:01:59;94948.59;;;7.99;84.01
21395;BME280;10858;42.714;23.180;2023-02-28T05:07:16;94946.66;;;8.14;83.70
21395;BME280;10858;42.714;23.180;2023-02-28T05:09:42;94946.56;;;8.03;84.09
21395;BME280;10858;42.714;23.180;2023-02-28T05:12:10;94944.03;;;8.14;83.72
21395;BME280;10858;42.714;23.180;2023-02-28T05:14:36;94947.94;;;8.08;83.72
21395;BME280;10858;42.714;23.180;2023-02-28T05:17:02;94955.66;;;8.11;83.57
21395;BME280;10858;42.714;23.180;2023-02-28T05:19:28;94963.72;;;7.97;83.58
21395;BME280;10858;42.714;23.180;2023-02-28T05:21:55;94962.22;;;7.93;84.05
21395;BME280;10858;42.714;23.180;2023-02-28T05:24:21;94963.13;;;7.80;84.84
21395;BME280;10858;42.714;23.180;2023-02-28T05:26:52;94968.56;;;8.03;84.50
21395;BME280;10858;42.714;23.180;2023-02-28T05:29:19;94969.81;;;8.10;83.76
21395;BME280;10858;42.714;23.180;2023-02-28T05:31:46;94971.06;;;7.80;84.48
21395;BME280;10858;42.714;23.180;2023-02-28T05:34:12;94970.78;;;7.71;85.91
21395;BME280;10858;42.714;23.180;2023-02-28T05:36:39;94976.16;;;7.95;85.93
21395;BME280;10858;42.714;23.180;2023-02-28T05:39:06;94976.38;;;8.17;84.33
21395;BME280;10858;42.714;23.180;2023-02-28T05:41:33;94984.72;;;8.11;84.31
21395;BME280;10858;42.714;23.180;2023-02-28T05:43:59;94980.50;;;8.21;84.20
21395;BME280;10858;42.714;23.180;2023-02-28T05:46:26;94984.44;;;8.28;83.34
21395;BME280;10858;42.714;23.180;2023-02-28T05:48:52;94985.38;;;8.15;83.57
21395;BME280;10858;42.714;23.180;2023-02-28T05:51:19;94986.53;;;8.11;83.90
21395;BME280;10858;42.714;23.180;2023-02-28T05:53:45;94985.66;;;8.10;83.88
21395;BME280;10858;42.714;23.180;2023-02-28T05:56:11;94980.28;;;8.12;84.06
21395;BME280;10858;42.714;23.180;2023-02-28T05:58:38;94984.81;;;8.10;84.27
21395;BME280;10858;42.714;23.180;2023-02-28T06:03:59;94987.81;;;8.55;83.00
21395;BME280;10858;42.714;23.180;2023-02-28T06:06:26;94988.31;;;8.48;82.90
21395;BME280;10858;42.714;23.180;2023-02-28T06:08:53;94985.47;;;8.38;83.87
21395;BME280;10858;42.714;23.180;2023-02-28T06:11:20;94989.16;;;8.36;84.03
21395;BME280;10858;42.714;23.180;2023-02-28T06:13:46;94992.16;;;8.31;84.65
21395;BME280;10858;42.714;23.180;2023-02-28T06:16:12;94989.56;;;8.68;83.66
21395;BME280;10858;42.714;23.180;2023-02-28T06:18:39;94987.44;;;8.73;82.87
21395;BME280;10858;42.714;23.180;2023-02-28T06:21:05;94992.81;;;8.84;82.80
21395;BME280;10858;42.714;23.180;2023-02-28T06:23:31;94987.09;;;8.90;82.23
21395;BME280;10858;42.714;23.180;2023-02-28T06:25:57;94989.56;;;8.68;82.06
21395;BME280;10858;42.714;23.180;2023-02-28T06:28:25;94993.59;;;8.61;82.50
21395;BME280;10858;42.714;23.180;2023-02-28T06:30:52;94998.44;;;8.67;82.72
21395;BME280;10858;42.714;23.180;2023-02-28T06:33:18;94995.16;;;8.76;82.34
21395;BME280;10858;42.714;23.180;2023-02-28T06:35:46;95004.34;;;8.83;82.17
21395;BME280;10858;42.714;23.180;2023-02-28T06:38:12;95003.00;;;8.65;82.70
21395;BME280;10858;42.714;23.180;2023-02-28T06:40:38;95006.69;;;8.75;82.74
21395;BME280;10858;42.714;23.180;2023-02-28T06:43:04;95004.66;;;8.78;82.22
21395;BME280;10858;42.714;23.180;2023-02-28T06:45:31;95008.09;;;8.55;83.63
21395;BME280;10858;42.714;23.180;2023-02-28T06:47:57;95009.94;;;8.91;83.19
21395;BME280;10858;42.714;23.180;2023-02-28T06:50:24;95017.91;;;9.02;82.86
21395;BME280;10858;42.714;23.180;2023-02-28T06:52:50;95015.94;;;8.93;82.76
21395;BME280;10858;42.714;23.180;2023-02-28T06:55:19;95010.94;;;9.01;82.58
21395;BME280;10858;42.714;23.180;2023-02-28T06:57:46;95010.06;;;9.13;82.31
21395;BME280;10858;42.714;23.180;2023-02-28T07:00:12;95017.72;;;9.28;81.93
21395;BME280;10858;42.714;23.180;2023-02-28T07:02:39;95023.16;;;8.91;82.00
21395;BME280;10858;42.714;23.180;2023-02-28T07:05:06;95022.41;;;9.01;82.70
21395;BME280;10858;42.714;23.180;2023-02-28T07:07:32;95026.00;;;9.24;82.03
21395;BME280;10858;42.714;23.180;2023-02-28T07:09:59;95023.63;;;9.32;81.19
21395;BME280;10858;42.714;23.180;2023-02-28T07:12:25;95024.53;;;9.20;80.96
21395;BME280;10858;42.714;23.180;2023-02-28T07:14:51;95027.38;;;9.29;81.38
21395;BME280;10858;42.714;23.180;2023-02-28T07:17:17;95024.06;;;9.02;82.28
21395;BME280;10858;42.714;23.180;2023-02-28T07:19:44;95025.66;;;9.28;81.55
21395;BME280;10858;42.714;23.180;2023-02-28T07:22:10;95029.47;;;9.37;80.78
21395;BME280;10858;42.714;23.180;2023-02-28T07:24:36;95028.94;;;9.32;81.22
21395;BME280;10858;42.714;23.180;2023-02-28T07:27:02;95026.94;;;9.35;81.13
21395;BME280;10858;42.714;23.180;2023-02-28T07:29:29;95019.25;;;9.20;80.61
21395;BME280;10858;42.714;23.180;2023-02-28T07:31:55;95018.94;;;9.12;81.09
21395;BME280;10858;42.714;23.180;2023-02-28T07:34:22;95020.22;;;9.19;81.34
21395;BME280;10858;42.714;23.180;2023-02-28T07:36:48;95023.72;;;9.43;81.27
21395;BME280;10858;42.714;23.180;2023-02-28T07:39:19;95027.03;;;9.58;80.42
21395;BME280;10858;42.714;23.180;2023-02-28T07:41:46;95027.97;;;9.57;79.99
21395;BME280;10858;42.714;23.180;2023-02-28T07:44:12;95020.81;;;9.46;81.18
21395;BME280;10858;42.714;23.180;2023-02-28T07:46:39;95030.13;;;9.75;80.88
21395;BME280;10858;42.714;23.180;2023-02-28T07:49:06;95018.88;;;9.95;79.36
21395;BME280;10858;42.714;23.180;2023-02-28T07:51:32;95019.81;;;9.94;78.28
21395;BME280;10858;42.714;23.180;2023-02-28T07:53:58;95014.59;;;10.16;78.10
21395;BME280;10858;42.714;23.180;2023-02-28T07:56:24;95019.34;;;10.24;78.33
21395;BME280;10858;42.714;23.180;2023-02-28T07:58:50;95013.44;;;10.32;77.61
21395;BME280;10858;42.714;23.180;2023-02-28T08:01:17;95024.88;;;10.32;78.44
21395;BME280;10858;42.714;23.180;2023-02-28T08:03:45;95016.31;;;10.17;78.67
21395;BME280;10858;42.714;23.180;2023-02-28T08:06:20;95013.69;;;9.94;79.48
21395;BME280;10858;42.714;23.180;2023-02-28T08:08:47;95016.56;;;10.25;78.90
21395;BME280;10858;42.714;23.180;2023-02-28T08:11:15;95017.81;;;10.66;76.92
21395;BME280;10858;42.714;23.180;2023-02-28T08:13:42;95019.25;;;10.59;76.19
21395;BME280;10858;42.714;23.180;2023-02-28T08:16:11;95027.94;;;10.50;76.26
21395;BME280;10858;42.714;23.180;2023-02-28T08:18:37;95028.28;;;9.99;79.25
21395;BME280;10858;42.714;23.180;2023-02-28T08:21:09;95033.47;;;10.01;80.44
21395;BME280;10858;42.714;23.180;2023-02-28T08:23:36;95031.06;;;9.98;80.12
21395;BME280;10858;42.714;23.180;2023-02-28T08:26:02;95030.16;;;10.10;80.52
21395;BME280;10858;42.714;23.180;2023-02-28T08:28:29;95035.66;;;10.64;79.20
21395;BME280;10858;42.714;23.180;2023-02-28T08:30:55;95034.91;;;10.51;79.47
21395;BME280;10858;42.714;23.180;2023-02-28T08:33:23;95032.28;;;10.62;78.49
21395;BME280;10858;42.714;23.180;2023-02-28T08:35:55;95028.66;;;10.52;78.43
21395;BME280;10858;42.714;23.180;2023-02-28T08:38:23;95029.38;;;10.65;78.40
21395;BME280;10858;42.714;23.180;2023-02-28T08:40:59;95028.03;;;11.26;76.14
21395;BME280;10858;42.714;23.180;2023-02-28T08:43:28;95031.28;;;11.40;74.00
21395;BME280;10858;42.714;23.180;2023-02-28T08:45:55;95035.38;;;11.33;74.39
21395;BME280;10858;42.714;23.180;2023-02-28T08:48:29;95035.09;;;11.58;73.57
21395;BME280;10858;42.714;23.180;2023-02-28T08:51:02;95042.78;;;11.61;73.25
21395;BME280;10858;42.714;23.180;2023-02-28T08:53:29;95035.63;;;11.19;74.53
21395;BME280;10858;42.714;23.180;2023-02-28T08:56:08;95041.00;;;10.86;74.67
21395;BME280;10858;42.714;23.180;2023-02-28T08:58:36;95035.28;;;11.12;75.26
21395;BME280;10858;42.714;23.180;2023-02-28T09:01:09;95030.47;;;11.18;74.46
21395;BME280;10858;42.714;23.180;2023-02-28T09:03:36;95034.03;;;11.39;73.71
21395;BME280;10858;42.714;23.180;2023-02-28T09:06:02;95033.25;;;11.05;74.97
21395;BME280;10858;42.714;23.180;2023-02-28T09:08:30;95026.81;;;11.19;74.72
21395;BME280;10858;42.714;23.180;2023-02-28T09:10:57;95025.88;;;11.62;74.19
21395;BME280;10858;42.714;23.180;2023-02-28T09:13:24;95033.56;;;11.87;72.51
21395;BME280;10858;42.714;23.180;2023-02-28T09:15:51;95031.75;;;11.88;72.44
21395;BME280;10858;42.714;23.180;2023-02-28T09:18:17;95025.97;;;11.40;73.36
21395;BME280;10858;42.714;23.180;2023-02-28T09:20:44;95024.84;;;11.43;73.95
21395;BME280;10858;42.714;23.180;2023-02-28T09:23:12;95032.72;;;11.44;74.21
21395;BME280;10858;42.714;23.180;2023-02-28T09:25:44;95025.88;;;11.73;72.88
21395;BME280;10858;42.714;23.180;2023-02-28T09:28:11;95030.00;;;11.66;72.11
21395;BME280;10858;42.714;23.180;2023-02-28T09:30:37;95027.81;;;11.60;72.89
21395;BME280;10858;42.714;23.180;2023-02-28T09:33:04;95031.91;;;11.64;73.38
21395;BME280;10858;42.714;23.180;2023-02-28T09:35:30;95026.50;;;11.98;71.79
21395;BME280;10858;42.714;23.180;2023-02-28T09:37:56;95031.50;;;12.12;71.13
21395;BME280;10858;42.714;23.180;2023-02-28T09:40:25;95021.94;;;11.88;72.00
21395;BME280;10858;42.714;23.180;2023-02-28T09:42:54;95020.16;;;11.35;73.20
21395;BME280;10858;42.714;23.180;2023-02-28T09:45:31;95018.00;;;11.29;74.43
21395;BME280;10858;42.714;23.180;2023-02-28T09:48:14;95027.53;;;11.85;73.02
21395;BME280;10858;42.714;23.180;2023-02-28T09:50:47;95031.47;;;11.91;72.90
21395;BME280;10858;42.714;23.180;2023-02-28T09:53:36;95018.59;;;11.64;74.01
21395;BME280;10858;42.714;23.180;2023-02-28T09:56:21;95018.94;;;12.14;71.23
21395;BME280;10858;42.714;23.180;2023-02-28T10:06:53;95004.09;;;13.22;68.81
21395;BME280;10858;42.714;23.180;2023-02-28T10:09:26;94998.78;;;13.22;67.98
21395;BME280;10858;42.714;23.180;2023-02-28T10:11:59;94994.66;;;13.09;67.91
21395;BME280;10858;42.714;23.180;2023-02-28T10:14:28;94991.66;;;13.42;67.44
21395;BME280;10858;42.714;23.180;2023-02-28T10:17:04;94992.00;;;13.87;65.87
21395;BME280;10858;42.714;23.180;2023-02-28T10:22:26;94990.31;;;13.67;65.92
21395;BME280;10858;42.714;23.180;2023-02-28T10:24:56;94983.72;;;13.90;65.45
21395;BME280;10858;42.714;23.180;2023-02-28T10:27:29;94983.72;;;14.28;65.64
21395;BME280;10858;42.714;23.180;2023-02-28T10:29:57;94984.88;;;15.45;63.97
21395;BME280;10858;42.714;23.180;2023-02-28T10:32:30;94984.13;;;15.70;60.26
21395;BME280;10858;42.714;23.180;2023-02-28T10:37:38;94968.41;;;15.13;62.40
21395;BME280;10858;42.714;23.180;2023-02-28T10:40:27;94971.53;;;15.08;63.49
21395;BME280;10858;42.714;23.180;2023-02-28T10:43:02;94961.41;;;15.29;61.93
21395;BME280;10858;42.714;23.180;2023-02-28T10:45:33;94953.66;;;15.36;60.57
21395;BME280;10858;42.714;23.180;2023-02-28T10:48:05;94952.75;;;14.54;64.03
21395;BME280;10858;42.714;23.180;2023-02-28T11:03:48;94930.94;;;17.39;56.36
21395;BME280;10858;42.714;23.180;2023-02-28T11:06:21;94928.00;;;17.74;56.22
21395;BME280;10858;42.714;23.180;2023-02-28T11:08:50;94924.50;;;17.73;55.52
21395;BME280;10858;42.714;23.180;2023-02-28T11:11:18;94912.09;;;17.23;57.65
21395;BME280;10858;42.714;23.180;2023-02-28T11:13:46;94913.25;;;16.53;59.70
21395;BME280;10858;42.714;23.180;2023-02-28T11:16:14;94908.75;;;17.21;57.57
21395;BME280;10858;42.714;23.180;2023-02-28T11:18:55;94906.59;;;16.90;58.65
21395;BME280;10858;42.714;23.180;2023-02-28T11:21:33;94899.44;;;16.65;60.13
21395;BME280;10858;42.714;23.180;2023-02-28T11:26:56;94902.84;;;17.09;56.60
21395;BME280;10858;42.714;23.180;2023-02-28T11:29:24;94896.91;;;17.39;55.92
21395;BME280;10858;42.714;23.180;2023-02-28T11:32:18;94893.53;;;16.36;58.56
21395;BME280;10858;42.714;23.180;2023-02-28T11:34:46;94895.47;;;17.11;57.40
21395;BME280;10858;42.714;23.180;2023-02-28T11:37:18;94886.66;;;16.85;58.39
21395;BME280;10858;42.714;23.180;2023-02-28T11:39:45;94891.66;;;16.88;58.40
21395;BME280;10858;42.714;23.180;2023-02-28T11:42:22;94892.53;;;16.55;58.05
21395;BME280;10858;42.714;23.180;2023-02-28T11:45:03;94882.41;;;15.80;59.51
21395;BME280;10858;42.714;23.180;2023-02-28T11:47:55;94886.81;;;15.36;61.09
21395;BME280;10858;42.714;23.180;2023-02-28T11:50:45;94886.56;;;15.29;60.70
21395;BME280;10858;42.714;23.180;2023-02-28T11:56:03;94887.66;;;14.55;63.43
21395;BME280;10858;42.714;23.180;2023-02-28T11:58:40;94887.59;;;14.37;63.40
21395;BME280;10858;42.714;23.180;2023-02-28T12:09:46;94874.41;;;14.26;64.75
21395;BME280;10858;42.714;23.180;2023-02-28T12:25:59;94882.38;;;14.82;63.38
21395;BME280;10858;42.714;23.180;2023-02-28T12:28:32;94880.44;;;14.38;63.81
21395;BME280;10858;42.714;23.180;2023-02-28T12:31:15;94881.53;;;13.80;65.43
21395;BME280;10858;42.714;23.180;2023-02-28T12:33:47;94869.31;;;13.87;64.77
21395;BME280;10858;42.714;23.180;2023-02-28T12:36:18;94874.22;;;13.82;65.82
21395;BME280;10858;42.714;23.180;2023-02-28T12:38:47;94870.72;;;13.72;65.07
21395;BME280;10858;42.714;23.180;2023-02-28T12:44:15;94862.47;;;14.21;64.80
21395;BME280;10858;42.714;23.180;2023-02-28T12:49:05;94861.97;;;14.08;63.02
21395;BME280;10858;42.714;23.180;2023-02-28T12:51:33;94865.28;;;14.29;62.52
21395;BME280;10858;42.714;23.180;2023-02-28T12:56:50;94854.63;;;14.29;64.89
21395;BME280;10858;42.714;23.180;2023-02-28T12:59:34;94851.66;;;14.69;61.73
21395;BME280;10858;42.714;23.180;2023-02-28T13:02:30;94850.84;;;14.22;62.83
21395;BME280;10858;42.714;23.180;2023-02-28T13:10:14;94844.66;;;13.65;65.60
21395;BME280;10858;42.714;23.180;2023-02-28T13:12:53;94842.72;;;13.48;64.75
21395;BME280;10858;42.714;23.180;2023-02-28T13:15:27;94846.34;;;13.19;65.07
21395;BME280;10858;42.714;23.180;2023-02-28T13:17:59;94847.91;;;13.40;64.84
21395;BME280;10858;42.714;23.180;2023-02-28T13:20:35;94843.53;;;13.39;64.81
21395;BME280;10858;42.714;23.180;2023-02-28T13:23:03;94837.91;;;13.61;62.96
21395;BME280;10858;42.714;23.180;2023-02-28T13:25:51;94845.78;;;13.73;62.68
21395;BME280;10858;42.714;23.180;2023-02-28T13:31:15;94835.75;;;13.94;63.02
21395;BME280;10858;42.714;23.180;2023-02-28T13:38:58;94833.03;;;15.21;60.27
21395;BME280;10858;42.714;23.180;2023-02-28T13:44:12;94830.41;;;15.57;58.31
21395;BME280;10858;42.714;23.180;2023-02-28T13:49:31;94820.34;;;15.23;60.36
21395;BME280;10858;42.714;23.180;2023-02-28T13:58:02;94825.09;;;14.40;61.19
21395;BME280;10858;42.714;23.180;2023-02-28T14:06:25;94825.47;;;13.14;63.64
21395;BME280;10858;42.714;23.180;2023-02-28T14:11:30;94822.25;;;13.20;63.60
21395;BME280;10858;42.714;23.180;2023-02-28T14:13:58;94814.09;;;13.31;64.13
21395;BME280;10858;42.714;23.180;2023-02-28T14:16:26;94818.84;;;13.66;63.58
21395;BME280;10858;42.714;23.180;2023-02-28T14:19:02;94820.56;;;13.38;64.49
21395;BME280;10858;42.714;23.180;2023-02-28T14:21:34;94827.56;;;13.30;64.70
21395;BME280;10858;42.714;23.180;2023-02-28T14:30:03;94824.09;;;12.61;66.61
21395;BME280;10858;42.714;23.180;2023-02-28T14:38:24;94821.56;;;12.10;67.82
21395;BME280;10858;42.714;23.180;2023-02-28T14:40:54;94832.66;;;12.25;67.66
21395;BME280;10858;42.714;23.180;2023-02-28T14:43:25;94823.38;;;12.10;68.18
21395;BME280;10858;42.714;23.180;2023-02-28T14:45:55;94821.94;;;12.06;68.73
21395;BME280;10858;42.714;23.180;2023-02-28T14:48:23;94820.22;;;11.95;68.88
21395;BME280;10858;42.714;23.180;2023-02-28T14:50:59;94819.81;;;12.00;69.19
21395;BME280;10858;42.714;23.180;2023-02-28T14:53:35;94815.03;;;11.93;69.43
21395;BME280;10858;42.714;23.180;2023-02-28T14:56:02;94815.00;;;11.84;70.28
21395;BME280;10858;42.714;23.180;2023-02-28T14:58:31;94822.22;;;11.61;70.42
21395;BME280;10858;42.714;23.180;2023-02-28T15:01:00;94820.44;;;11.41;71.85
21395;BME280;10858;42.714;23.180;2023-02-28T15:03:36;94816.22;;;11.59;71.47
21395;BME280;10858;42.714;23.180;2023-02-28T15:06:05;94807.00;;;11.43;72.14
21395;BME280;10858;42.714;23.180;2023-02-28T15:08:32;94820.31;;;11.22;72.72
21395;BME280;10858;42.714;23.180;2023-02-28T15:11:05;94820.38;;;11.32;73.09
21395;BME280;10858;42.714;23.180;2023-02-28T15:13:39;94826.84;;;11.18;72.95
21395;BME280;10858;42.714;23.180;2023-02-28T15:16:29;94820.94;;;11.56;72.52
21395;BME280;10858;42.714;23.180;2023-02-28T15:19:00;94814.66;;;11.16;73.71
21395;BME280;10858;42.714;23.180;2023-02-28T15:21:30;94820.19;;;11.12;73.87
21395;BME280;10858;42.714;23.180;2023-02-28T15:24:18;94821.00;;;10.92;74.54
21395;BME280;10858;42.714;23.180;2023-02-28T15:26:59;94837.47;;;11.18;74.33
21395;BME280;10858;42.714;23.180;2023-02-28T15:29:41;94835.25;;;11.23;74.42
21395;BME280;10858;42.714;23.180;2023-02-28T15:32:31;94833.09;;;11.17;74.26
21395;BME280;10858;42.714;23.180;2023-02-28T15:34:59;94836.94;;;11.24;74.40
21395;BME280;10858;42.714;23.180;2023-02-28T15:37:50;94846.44;;;11.06;75.28
21395;BME280;10858;42.714;23.180;2023-02-28T15:40:26;94842.16;;;10.94;75.33
21395;BME280;10858;42.714;23.180;2023-02-28T15:43:18;94834.91;;;10.96;76.67
21395;BME280;10858;42.714;23.180;2023-02-28T15:45:50;94841.59;;;10.79;77.54
21395;BME280;10858;42.714;23.180;2023-02-28T15:51:32;94843.00;;;10.41;78.63
21395;BME280;10858;42.714;23.180;2023-02-28T15:54:04;94845.66;;;10.30;78.20